sensor_id;sensor_type;location;lat;lon;timestamp;P1;durP1;ratioP1;P2;durP2;ratioP2
47155;SDS011;32908;52.344;16.858;2022-10-16T07:38:08;16.17;;;11.83;;
47155;SDS011;32908;52.344;16.858;2022-10-16T07:40:38;13.63;;;11.97;;
47155;SDS011;32908;52.344;16.858;2022-10-16T07:43:09;14.20;;;11.87;;
47155;SDS011;32908;52.344;16.858;2022-10-16T07:45:40;14.97;;;12.53;;
47155;SDS011;32908;52.344;16.858;2022-10-16T07:48:17;13.63;;;11.93;;
47155;SDS011;32908;52.344;16.858;2022-10-16T07:50:48;14.87;;;12.13;;
47155;SDS011;32908;52.344;16.858;2022-10-16T07:53:18;15.05;;;11.80;;
47155;SDS011;32908;52.344;16.858;2022-10-16T07:55:49;15.60;;;11.50;;
47155;SDS011;32908;52.344;16.858;2022-10-16T07:58:19;14.57;;;11.17;;
47155;SDS011;32908;52.344;16.858;2022-10-16T08:00:50;13.17;;;11.30;;
47155;SDS011;32908;52.344;16.858;2022-10-16T08:03:20;14.37;;;11.70;;
47155;SDS011;32908;52.344;16.858;2022-10-16T08:05:51;12.67;;;10.27;;
47155;SDS011;32908;52.344;16.858;2022-10-16T08:08:22;11.73;;;10.00;;
47155;SDS011;32908;52.344;16.858;2022-10-16T08:10:52;13.67;;;10.97;;
47155;SDS011;32908;52.344;16.858;2022-10-16T08:13:23;10.37;;;9.00;;
47155;SDS011;32908;52.344;16.858;2022-10-16T08:15:54;10.23;;;9.13;;
47155;SDS011;32908;52.344;16.858;2022-10-16T08:18:24;10.97;;;9.87;;
47155;SDS011;32908;52.344;16.858;2022-10-16T08:20:58;12.30;;;10.33;;
47155;SDS011;32908;52.344;16.858;2022-10-16T08:23:29;10.60;;;9.03;;
47155;SDS011;32908;52.344;16.858;2022-10-16T08:26:03;9.03;;;7.90;;
47155;SDS011;32908;52.344;16.858;2022-10-16T08:28:34;9.60;;;8.20;;
47155;SDS011;32908;52.344;16.858;2022-10-16T08:31:06;9.00;;;8.10;;
47155;SDS011;32908;52.344;16.858;2022-10-16T08:33:39;12.20;;;8.97;;
47155;SDS011;32908;52.344;16.858;2022-10-16T08:36:12;11.33;;;8.27;;
47155;SDS011;32908;52.344;16.858;2022-10-16T08:38:43;9.07;;;8.00;;
47155;SDS011;32908;52.344;16.858;2022-10-16T08:41:29;9.07;;;8.13;;
47155;SDS011;32908;52.344;16.858;2022-10-16T08:44:30;9.70;;;7.67;;
47155;SDS011;32908;52.344;16.858;2022-10-16T08:47:12;8.63;;;7.47;;
47155;SDS011;32908;52.344;16.858;2022-10-16T08:49:50;8.15;;;7.35;;
47155;SDS011;32908;52.344;16.858;2022-10-16T08:52:29;8.53;;;7.03;;
47155;SDS011;32908;52.344;16.858;2022-10-16T08:55:01;10.13;;;7.23;;
47155;SDS011;32908;52.344;16.858;2022-10-16T08:57:33;8.37;;;6.87;;
47155;SDS011;32908;52.344;16.858;2022-10-16T09:00:08;8.57;;;7.07;;
47155;SDS011;32908;52.344;16.858;2022-10-16T09:02:44;7.13;;;6.43;;
47155;SDS011;32908;52.344;16.858;2022-10-16T09:05:23;7.33;;;6.50;;
47155;SDS011;32908;52.344;16.858;2022-10-16T09:08:03;7.55;;;6.20;;
47155;SDS011;32908;52.344;16.858;2022-10-16T09:10:42;8.07;;;5.80;;
47155;SDS011;32908;52.344;16.858;2022-10-16T09:13:19;7.53;;;6.40;;
47155;SDS011;32908;52.344;16.858;2022-10-16T09:15:58;7.90;;;6.20;;
47155;SDS011;32908;52.344;16.858;2022-10-16T09:18:34;9.93;;;6.57;;
47155;SDS011;32908;52.344;16.858;2022-10-16T09:21:09;7.13;;;6.10;;
47155;SDS011;32908;52.344;16.858;2022-10-16T09:23:44;7.70;;;6.95;;
47155;SDS011;32908;52.344;16.858;2022-10-16T09:26:15;8.67;;;6.07;;
47155;SDS011;32908;52.344;16.858;2022-10-16T09:28:47;7.07;;;5.93;;
47155;SDS011;32908;52.344;16.858;2022-10-16T09:31:18;6.10;;;5.50;;
47155;SDS011;32908;52.344;16.858;2022-10-16T09:33:51;7.73;;;6.07;;
47155;SDS011;32908;52.344;16.858;2022-10-16T09:36:24;7.43;;;6.50;;
47155;SDS011;32908;52.344;16.858;2022-10-16T09:39:03;7.63;;;5.83;;
47155;SDS011;32908;52.344;16.858;2022-10-16T09:41:35;8.20;;;6.90;;
47155;SDS011;32908;52.344;16.858;2022-10-16T09:44:15;7.25;;;5.90;;
47155;SDS011;32908;52.344;16.858;2022-10-16T09:46:48;8.03;;;6.50;;
47155;SDS011;32908;52.344;16.858;2022-10-16T09:49:28;7.77;;;6.53;;
47155;SDS011;32908;52.344;16.858;2022-10-16T09:52:09;9.10;;;5.60;;
47155;SDS011;32908;52.344;16.858;2022-10-16T09:54:49;6.10;;;5.50;;
47155;SDS011;32908;52.344;16.858;2022-10-16T09:57:21;7.23;;;6.23;;
47155;SDS011;32908;52.344;16.858;2022-10-16T09:59:52;9.65;;;6.40;;
47155;SDS011;32908;52.344;16.858;2022-10-16T10:02:30;10.33;;;5.83;;
47155;SDS011;32908;52.344;16.858;2022-10-16T10:05:03;8.03;;;6.07;;
47155;SDS011;32908;52.344;16.858;2022-10-16T10:07:35;7.87;;;6.03;;
47155;SDS011;32908;52.344;16.858;2022-10-16T10:10:19;9.13;;;6.50;;
47155;SDS011;32908;52.344;16.858;2022-10-16T10:12:51;7.40;;;5.80;;
47155;SDS011;32908;52.344;16.858;2022-10-16T10:15:23;9.65;;;5.80;;
47155;SDS011;32908;52.344;16.858;2022-10-16T10:17:55;8.03;;;6.57;;
47155;SDS011;32908;52.344;16.858;2022-10-16T10:20:27;7.40;;;6.20;;
47155;SDS011;32908;52.344;16.858;2022-10-16T10:23:00;7.03;;;6.33;;
47155;SDS011;32908;52.344;16.858;2022-10-16T10:25:48;6.50;;;5.57;;
47155;SDS011;32908;52.344;16.858;2022-10-16T10:31:19;6.90;;;6.20;;
47155;SDS011;32908;52.344;16.858;2022-10-16T10:33:54;7.00;;;5.17;;
47155;SDS011;32908;52.344;16.858;2022-10-16T10:36:32;6.80;;;6.10;;
47155;SDS011;32908;52.344;16.858;2022-10-16T12:40:56;2.50;;;2.30;;
47155;SDS011;32908;52.344;16.858;2022-10-16T12:43:35;4.07;;;2.60;;
47155;SDS011;32908;52.344;16.858;2022-10-16T12:46:20;3.27;;;2.67;;
47155;SDS011;32908;52.344;16.858;2022-10-16T12:48:52;2.20;;;2.00;;
47155;SDS011;32908;52.344;16.858;2022-10-16T12:51:35;3.70;;;2.70;;
47155;SDS011;32908;52.344;16.858;2022-10-16T12:54:11;2.97;;;2.77;;
47155;SDS011;32908;52.344;16.858;2022-10-16T12:56:46;2.77;;;2.57;;
47155;SDS011;32908;52.344;16.858;2022-10-16T12:59:24;4.23;;;3.23;;
47155;SDS011;32908;52.344;16.858;2022-10-16T13:02:08;3.63;;;2.90;;
47155;SDS011;32908;52.344;16.858;2022-10-16T13:05:00;3.90;;;3.00;;
47155;SDS011;32908;52.344;16.858;2022-10-16T13:07:50;7.00;;;6.30;;
47155;SDS011;32908;52.344;16.858;2022-10-16T13:10:26;3.20;;;2.90;;
47155;SDS011;32908;52.344;16.858;2022-10-16T13:13:07;3.47;;;2.80;;
47155;SDS011;32908;52.344;16.858;2022-10-16T13:18:40;5.50;;;2.90;;
47155;SDS011;32908;52.344;16.858;2022-10-16T13:21:20;3.15;;;2.85;;
47155;SDS011;32908;52.344;16.858;2022-10-16T13:24:02;3.80;;;3.03;;
47155;SDS011;32908;52.344;16.858;2022-10-16T13:26:40;6.97;;;3.20;;
47155;SDS011;32908;52.344;16.858;2022-10-16T13:29:13;7.47;;;3.80;;
47155;SDS011;32908;52.344;16.858;2022-10-16T13:31:44;4.73;;;3.40;;
47155;SDS011;32908;52.344;16.858;2022-10-16T13:34:15;4.20;;;3.00;;
47155;SDS011;32908;52.344;16.858;2022-10-16T13:36:48;3.33;;;3.03;;
47155;SDS011;32908;52.344;16.858;2022-10-16T13:39:22;3.40;;;3.10;;
47155;SDS011;32908;52.344;16.858;2022-10-16T13:42:03;4.67;;;2.83;;
47155;SDS011;32908;52.344;16.858;2022-10-16T13:44:39;4.47;;;3.03;;
47155;SDS011;32908;52.344;16.858;2022-10-16T13:47:15;10.07;;;4.17;;
47155;SDS011;32908;52.344;16.858;2022-10-16T13:49:47;4.80;;;2.90;;
47155;SDS011;32908;52.344;16.858;2022-10-16T13:52:27;6.17;;;4.30;;
47155;SDS011;32908;52.344;16.858;2022-10-16T13:54:58;5.80;;;3.43;;
47155;SDS011;32908;52.344;16.858;2022-10-16T13:57:29;5.23;;;3.97;;
47155;SDS011;32908;52.344;16.858;2022-10-16T13:59:59;4.10;;;3.70;;
47155;SDS011;32908;52.344;16.858;2022-10-16T14:02:31;7.50;;;3.40;;
47155;SDS011;32908;52.344;16.858;2022-10-16T14:05:04;3.70;;;3.40;;
47155;SDS011;32908;52.344;16.858;2022-10-16T14:07:38;6.43;;;3.63;;
47155;SDS011;32908;52.344;16.858;2022-10-16T14:10:18;4.70;;;3.87;;
47155;SDS011;32908;52.344;16.858;2022-10-16T14:12:55;5.63;;;3.23;;
47155;SDS011;32908;52.344;16.858;2022-10-16T14:15:27;5.20;;;3.33;;
47155;SDS011;32908;52.344;16.858;2022-10-16T14:17:58;5.67;;;3.77;;
47155;SDS011;32908;52.344;16.858;2022-10-16T14:20:29;4.50;;;3.80;;
47155;SDS011;32908;52.344;16.858;2022-10-16T14:23:03;7.00;;;3.67;;
47155;SDS011;32908;52.344;16.858;2022-10-16T14:25:46;7.67;;;4.80;;
47155;SDS011;32908;52.344;16.858;2022-10-16T14:28:18;5.80;;;5.20;;
47155;SDS011;32908;52.344;16.858;2022-10-16T14:30:50;7.30;;;5.40;;
47155;SDS011;32908;52.344;16.858;2022-10-16T14:33:23;8.70;;;4.30;;
47155;SDS011;32908;52.344;16.858;2022-10-16T14:36:05;6.10;;;3.97;;
47155;SDS011;32908;52.344;16.858;2022-10-16T14:38:39;7.00;;;3.70;;
47155;SDS011;32908;52.344;16.858;2022-10-16T16:10:18;15.23;;;7.93;;
47155;SDS011;32908;52.344;16.858;2022-10-16T16:12:49;11.03;;;7.27;;
47155;SDS011;32908;52.344;16.858;2022-10-16T16:15:20;16.35;;;8.10;;
47155;SDS011;32908;52.344;16.858;2022-10-16T16:17:51;10.67;;;6.87;;
47155;SDS011;32908;52.344;16.858;2022-10-16T16:20:21;11.57;;;7.03;;
47155;SDS011;32908;52.344;16.858;2022-10-16T16:22:52;15.77;;;7.67;;
47155;SDS011;32908;52.344;16.858;2022-10-16T16:25:22;12.73;;;7.13;;
47155;SDS011;32908;52.344;16.858;2022-10-16T16:27:53;11.63;;;6.60;;
47155;SDS011;32908;52.344;16.858;2022-10-16T16:30:23;7.60;;;5.23;;
47155;SDS011;32908;52.344;16.858;2022-10-16T16:32:53;6.80;;;5.20;;
47155;SDS011;32908;52.344;16.858;2022-10-16T16:35:24;13.63;;;6.30;;
47155;SDS011;32908;52.344;16.858;2022-10-16T16:37:54;10.23;;;5.90;;
47155;SDS011;32908;52.344;16.858;2022-10-16T16:40:25;12.85;;;7.65;;
47155;SDS011;32908;52.344;16.858;2022-10-16T16:42:56;22.50;;;13.97;;
47155;SDS011;32908;52.344;16.858;2022-10-16T16:45:27;34.00;;;19.45;;
47155;SDS011;32908;52.344;16.858;2022-10-16T16:47:57;38.20;;;21.70;;
47155;SDS011;32908;52.344;16.858;2022-10-16T16:50:28;36.83;;;20.53;;
47155;SDS011;32908;52.344;16.858;2022-10-16T16:52:58;31.53;;;17.43;;
47155;SDS011;32908;52.344;16.858;2022-10-16T16:55:29;26.47;;;14.60;;
47155;SDS011;32908;52.344;16.858;2022-10-16T16:57:59;19.90;;;11.83;;
47155;SDS011;32908;52.344;16.858;2022-10-16T17:00:32;21.60;;;11.00;;
47155;SDS011;32908;52.344;16.858;2022-10-16T17:03:02;20.70;;;10.10;;
47155;SDS011;32908;52.344;16.858;2022-10-16T17:05:33;15.23;;;9.67;;
47155;SDS011;32908;52.344;16.858;2022-10-16T17:08:03;19.50;;;9.70;;
47155;SDS011;32908;52.344;16.858;2022-10-16T17:10:42;19.93;;;10.10;;
47155;SDS011;32908;52.344;16.858;2022-10-16T17:13:15;14.40;;;10.60;;
47155;SDS011;32908;52.344;16.858;2022-10-16T17:15:46;15.63;;;10.30;;
47155;SDS011;32908;52.344;16.858;2022-10-16T17:18:18;19.47;;;11.97;;
47155;SDS011;32908;52.344;16.858;2022-10-16T17:20:49;24.77;;;15.50;;
47155;SDS011;32908;52.344;16.858;2022-10-16T17:23:20;22.50;;;15.03;;
47155;SDS011;32908;52.344;16.858;2022-10-16T17:25:51;25.40;;;14.57;;
47155;SDS011;32908;52.344;16.858;2022-10-16T17:28:22;20.63;;;14.03;;
47155;SDS011;32908;52.344;16.858;2022-10-16T17:30:52;23.70;;;15.55;;
47155;SDS011;32908;52.344;16.858;2022-10-16T17:33:23;26.17;;;15.50;;
47155;SDS011;32908;52.344;16.858;2022-10-16T17:35:53;23.87;;;15.37;;
47155;SDS011;32908;52.344;16.858;2022-10-16T17:38:24;22.20;;;12.50;;
47155;SDS011;32908;52.344;16.858;2022-10-16T17:40:54;19.13;;;11.23;;
47155;SDS011;32908;52.344;16.858;2022-10-16T17:43:25;19.93;;;10.00;;
47155;SDS011;32908;52.344;16.858;2022-10-16T17:45:55;17.17;;;9.53;;
47155;SDS011;32908;52.344;16.858;2022-10-16T17:48:25;17.30;;;9.90;;
47155;SDS011;32908;52.344;16.858;2022-10-16T17:50:56;14.33;;;10.33;;
47155;SDS011;32908;52.344;16.858;2022-10-16T17:53:26;14.73;;;9.83;;
47155;SDS011;32908;52.344;16.858;2022-10-16T17:56:00;17.17;;;11.33;;
47155;SDS011;32908;52.344;16.858;2022-10-16T17:58:32;21.80;;;12.50;;
47155;SDS011;32908;52.344;16.858;2022-10-16T18:01:03;17.07;;;11.60;;
47155;SDS011;32908;52.344;16.858;2022-10-16T18:03:41;23.90;;;12.77;;
47155;SDS011;32908;52.344;16.858;2022-10-16T18:06:11;19.67;;;12.60;;
47155;SDS011;32908;52.344;16.858;2022-10-16T18:08:42;21.47;;;12.83;;
47155;SDS011;32908;52.344;16.858;2022-10-16T22:33:18;44.70;;;29.77;;
47155;SDS011;32908;52.344;16.858;2022-10-16T22:35:49;48.65;;;28.80;;
47155;SDS011;32908;52.344;16.858;2022-10-16T22:38:19;42.20;;;29.70;;
47155;SDS011;32908;52.344;16.858;2022-10-16T22:40:50;45.43;;;28.93;;
47155;SDS011;32908;52.344;16.858;2022-10-16T22:43:20;41.53;;;28.10;;
47155;SDS011;32908;52.344;16.858;2022-10-16T22:45:51;41.10;;;28.23;;
47155;SDS011;32908;52.344;16.858;2022-10-16T22:48:21;41.17;;;28.40;;
47155;SDS011;32908;52.344;16.858;2022-10-16T22:50:51;42.77;;;28.60;;
47155;SDS011;32908;52.344;16.858;2022-10-16T22:53:22;42.63;;;28.30;;
47155;SDS011;32908;52.344;16.858;2022-10-16T22:55:52;43.33;;;27.23;;
47155;SDS011;32908;52.344;16.858;2022-10-16T22:58:23;45.05;;;28.35;;
47155;SDS011;32908;52.344;16.858;2022-10-16T23:00:54;38.80;;;27.07;;
47155;SDS011;32908;52.344;16.858;2022-10-16T23:03:25;38.87;;;27.00;;
47155;SDS011;32908;52.344;16.858;2022-10-16T23:05:55;41.97;;;26.30;;
47155;SDS011;32908;52.344;16.858;2022-10-16T23:08:25;41.73;;;26.13;;
47155;SDS011;32908;52.344;16.858;2022-10-16T23:10:56;40.43;;;26.07;;
47155;SDS011;32908;52.344;16.858;2022-10-16T23:13:28;40.80;;;26.37;;
47155;SDS011;32908;52.344;16.858;2022-10-16T23:15:59;35.95;;;25.45;;
47155;SDS011;32908;52.344;16.858;2022-10-16T23:18:30;37.57;;;25.30;;
47155;SDS011;32908;52.344;16.858;2022-10-16T23:21:04;35.65;;;24.65;;
47155;SDS011;32908;52.344;16.858;2022-10-16T23:23:35;38.03;;;24.07;;
47155;SDS011;32908;52.344;16.858;2022-10-16T23:26:08;38.13;;;22.90;;
47155;SDS011;32908;52.344;16.858;2022-10-16T23:28:40;33.23;;;22.97;;
47155;SDS011;32908;52.344;16.858;2022-10-16T23:31:11;33.07;;;21.43;;
47155;SDS011;32908;52.344;16.858;2022-10-16T23:33:42;32.27;;;22.87;;
47155;SDS011;32908;52.344;16.858;2022-10-16T23:36:14;32.20;;;21.63;;
47155;SDS011;32908;52.344;16.858;2022-10-16T23:38:45;28.13;;;21.90;;
47155;SDS011;32908;52.344;16.858;2022-10-16T23:41:16;37.57;;;23.20;;
47155;SDS011;32908;52.344;16.858;2022-10-16T23:43:47;33.10;;;23.20;;
47155;SDS011;32908;52.344;16.858;2022-10-16T23:46:19;32.80;;;22.87;;
47155;SDS011;32908;52.344;16.858;2022-10-16T23:48:49;29.43;;;21.53;;
47155;SDS011;32908;52.344;16.858;2022-10-16T23:51:20;28.83;;;21.07;;
47155;SDS011;32908;52.344;16.858;2022-10-16T23:53:51;31.83;;;21.73;;
47155;SDS011;32908;52.344;16.858;2022-10-16T23:56:21;33.27;;;22.07;;
47155;SDS011;32908;52.344;16.858;2022-10-16T23:58:52;28.90;;;20.60;;
